sensor_id;sensor_type;location;lat;lon;timestamp;P1;durP1;ratioP1;P2;durP2;ratioP2
78844;SDS011;68195;50.854;2.860;2023-06-05T00:01:21;9.10;;;3.92;;
78844;SDS011;68195;50.854;2.860;2023-06-05T00:03:47;14.05;;;4.88;;
78844;SDS011;68195;50.854;2.860;2023-06-05T00:06:12;10.60;;;4.30;;
78844;SDS011;68195;50.854;2.860;2023-06-05T00:11:02;10.23;;;4.77;;
78844;SDS011;68195;50.854;2.860;2023-06-05T00:15:53;7.60;;;4.17;;
78844;SDS011;68195;50.854;2.860;2023-06-05T00:18:21;9.65;;;4.75;;
78844;SDS011;68195;50.854;2.860;2023-06-05T00:20:51;10.60;;;5.03;;
78844;SDS011;68195;50.854;2.860;2023-06-05T00:23:21;12.15;;;6.03;;
78844;SDS011;68195;50.854;2.860;2023-06-05T00:25:51;9.35;;;4.13;;
78844;SDS011;68195;50.854;2.860;2023-06-05T00:28:21;10.10;;;4.60;;
78844;SDS011;68195;50.854;2.860;2023-06-05T00:30:47;13.18;;;5.03;;
78844;SDS011;68195;50.854;2.860;2023-06-05T00:35:42;9.73;;;4.53;;
78844;SDS011;68195;50.854;2.860;2023-06-05T00:38:10;9.80;;;4.85;;
78844;SDS011;68195;50.854;2.860;2023-06-05T00:40:40;10.07;;;4.68;;
78844;SDS011;68195;50.854;2.860;2023-06-05T00:43:08;10.70;;;4.20;;
78844;SDS011;68195;50.854;2.860;2023-06-05T00:45:34;13.15;;;5.28;;
78844;SDS011;68195;50.854;2.860;2023-06-05T00:48:02;9.20;;;5.50;;
78844;SDS011;68195;50.854;2.860;2023-06-05T00:50:28;11.68;;;4.72;;
78844;SDS011;68195;50.854;2.860;2023-06-05T00:52:56;8.30;;;4.43;;
78844;SDS011;68195;50.854;2.860;2023-06-05T00:55:21;9.95;;;4.80;;
78844;SDS011;68195;50.854;2.860;2023-06-05T00:57:50;10.07;;;4.63;;
78844;SDS011;68195;50.854;2.860;2023-06-05T01:00:15;9.35;;;4.43;;
78844;SDS011;68195;50.854;2.860;2023-06-05T01:02:41;10.48;;;5.25;;
78844;SDS011;68195;50.854;2.860;2023-06-05T01:05:11;9.80;;;5.03;;
78844;SDS011;68195;50.854;2.860;2023-06-05T01:07:40;9.05;;;4.60;;
78844;SDS011;68195;50.854;2.860;2023-06-05T01:10:12;11.05;;;4.70;;
78844;SDS011;68195;50.854;2.860;2023-06-05T01:15:23;9.07;;;4.57;;
78844;SDS011;68195;50.854;2.860;2023-06-05T01:17:53;9.18;;;4.40;;
78844;SDS011;68195;50.854;2.860;2023-06-05T01:20:31;9.52;;;5.20;;
78844;SDS011;68195;50.854;2.860;2023-06-05T01:23:06;11.23;;;5.07;;
78844;SDS011;68195;50.854;2.860;2023-06-05T01:25:38;10.10;;;5.40;;
78844;SDS011;68195;50.854;2.860;2023-06-05T01:33:35;11.70;;;5.05;;
78844;SDS011;68195;50.854;2.860;2023-06-05T01:36:09;8.40;;;5.45;;
78844;SDS011;68195;50.854;2.860;2023-06-05T01:38:36;9.95;;;5.28;;
78844;SDS011;68195;50.854;2.860;2023-06-05T01:41:03;15.98;;;6.05;;
78844;SDS011;68195;50.854;2.860;2023-06-05T01:43:30;13.60;;;5.10;;
78844;SDS011;68195;50.854;2.860;2023-06-05T01:45:56;12.73;;;6.50;;
78844;SDS011;68195;50.854;2.860;2023-06-05T01:48:27;10.77;;;5.32;;
78844;SDS011;68195;50.854;2.860;2023-06-05T01:50:59;10.70;;;5.88;;
78844;SDS011;68195;50.854;2.860;2023-06-05T01:53:26;12.77;;;5.88;;
78844;SDS011;68195;50.854;2.860;2023-06-05T01:55:53;16.05;;;6.68;;
78844;SDS011;68195;50.854;2.860;2023-06-05T01:58:22;13.52;;;5.97;;
78844;SDS011;68195;50.854;2.860;2023-06-05T02:00:51;14.85;;;5.78;;
78844;SDS011;68195;50.854;2.860;2023-06-05T02:03:22;12.52;;;6.38;;
78844;SDS011;68195;50.854;2.860;2023-06-05T02:05:50;13.38;;;6.55;;
78844;SDS011;68195;50.854;2.860;2023-06-05T02:08:20;9.50;;;6.03;;
78844;SDS011;68195;50.854;2.860;2023-06-05T02:10:48;12.30;;;5.55;;
78844;SDS011;68195;50.854;2.860;2023-06-05T02:13:18;12.50;;;6.28;;
78844;SDS011;68195;50.854;2.860;2023-06-05T02:18:21;9.90;;;5.57;;
78844;SDS011;68195;50.854;2.860;2023-06-05T02:20:52;12.43;;;6.47;;
78844;SDS011;68195;50.854;2.860;2023-06-05T02:23:19;13.65;;;7.03;;
78844;SDS011;68195;50.854;2.860;2023-06-05T02:25:49;12.90;;;6.47;;
78844;SDS011;68195;50.854;2.860;2023-06-05T02:28:17;13.68;;;7.15;;
78844;SDS011;68195;50.854;2.860;2023-06-05T02:30:49;9.80;;;5.93;;
78844;SDS011;68195;50.854;2.860;2023-06-05T02:33:22;13.43;;;5.88;;
78844;SDS011;68195;50.854;2.860;2023-06-05T02:35:50;9.35;;;6.05;;
78844;SDS011;68195;50.854;2.860;2023-06-05T02:38:18;12.45;;;6.72;;
78844;SDS011;68195;50.854;2.860;2023-06-05T02:40:46;12.95;;;5.93;;
78844;SDS011;68195;50.854;2.860;2023-06-05T02:43:14;10.35;;;5.38;;
78844;SDS011;68195;50.854;2.860;2023-06-05T02:45:44;11.30;;;6.15;;
78844;SDS011;68195;50.854;2.860;2023-06-05T02:48:09;10.10;;;5.32;;
78844;SDS011;68195;50.854;2.860;2023-06-05T02:50:35;11.70;;;5.63;;
78844;SDS011;68195;50.854;2.860;2023-06-05T02:53:05;13.45;;;5.95;;
78844;SDS011;68195;50.854;2.860;2023-06-05T02:55:35;10.80;;;6.47;;
78844;SDS011;68195;50.854;2.860;2023-06-05T02:58:05;10.65;;;5.63;;
78844;SDS011;68195;50.854;2.860;2023-06-05T03:00:36;9.82;;;6.00;;
78844;SDS011;68195;50.854;2.860;2023-06-05T03:03:02;9.25;;;6.22;;
78844;SDS011;68195;50.854;2.860;2023-06-05T03:05:28;11.55;;;5.72;;
78844;SDS011;68195;50.854;2.860;2023-06-05T03:07:56;12.98;;;5.88;;
78844;SDS011;68195;50.854;2.860;2023-06-05T03:10:26;11.93;;;6.32;;
78844;SDS011;68195;50.854;2.860;2023-06-05T03:12:52;12.18;;;5.68;;
78844;SDS011;68195;50.854;2.860;2023-06-05T03:15:18;12.90;;;6.72;;
78844;SDS011;68195;50.854;2.860;2023-06-05T03:17:43;10.68;;;5.55;;
78844;SDS011;68195;50.854;2.860;2023-06-05T03:20:10;9.23;;;5.57;;
78844;SDS011;68195;50.854;2.860;2023-06-05T03:22:36;9.77;;;5.57;;
78844;SDS011;68195;50.854;2.860;2023-06-05T03:25:07;10.27;;;5.78;;
78844;SDS011;68195;50.854;2.860;2023-06-05T03:27:33;10.23;;;5.95;;
78844;SDS011;68195;50.854;2.860;2023-06-05T03:30:02;10.82;;;6.20;;
78844;SDS011;68195;50.854;2.860;2023-06-05T03:32:30;16.88;;;7.07;;
78844;SDS011;68195;50.854;2.860;2023-06-05T03:34:58;11.00;;;5.78;;
78844;SDS011;68195;50.854;2.860;2023-06-05T03:37:23;12.15;;;6.65;;
78844;SDS011;68195;50.854;2.860;2023-06-05T03:39:54;12.63;;;6.63;;
78844;SDS011;68195;50.854;2.860;2023-06-05T03:42:22;11.30;;;6.40;;
78844;SDS011;68195;50.854;2.860;2023-06-05T03:44:47;10.32;;;6.18;;
78844;SDS011;68195;50.854;2.860;2023-06-05T03:47:15;13.90;;;6.50;;
78844;SDS011;68195;50.854;2.860;2023-06-05T03:49:45;11.50;;;6.00;;
78844;SDS011;68195;50.854;2.860;2023-06-05T03:52:12;12.27;;;6.15;;
78844;SDS011;68195;50.854;2.860;2023-06-05T03:54:39;11.25;;;6.13;;
78844;SDS011;68195;50.854;2.860;2023-06-05T03:57:10;14.55;;;7.55;;
78844;SDS011;68195;50.854;2.860;2023-06-05T03:59:39;12.82;;;6.90;;
78844;SDS011;68195;50.854;2.860;2023-06-05T04:02:10;13.00;;;6.57;;
78844;SDS011;68195;50.854;2.860;2023-06-05T04:04:37;14.05;;;6.45;;
78844;SDS011;68195;50.854;2.860;2023-06-05T04:07:05;10.05;;;6.35;;
78844;SDS011;68195;50.854;2.860;2023-06-05T04:09:31;13.25;;;6.47;;
78844;SDS011;68195;50.854;2.860;2023-06-05T04:11:59;17.90;;;6.85;;
78844;SDS011;68195;50.854;2.860;2023-06-05T04:14:26;13.25;;;7.03;;
78844;SDS011;68195;50.854;2.860;2023-06-05T04:16:52;10.38;;;6.25;;
78844;SDS011;68195;50.854;2.860;2023-06-05T04:19:20;10.25;;;6.03;;
78844;SDS011;68195;50.854;2.860;2023-06-05T04:21:48;12.68;;;5.85;;
78844;SDS011;68195;50.854;2.860;2023-06-05T04:24:16;12.75;;;6.70;;
78844;SDS011;68195;50.854;2.860;2023-06-05T04:26:41;11.13;;;6.47;;
78844;SDS011;68195;50.854;2.860;2023-06-05T04:29:07;13.18;;;6.97;;
78844;SDS011;68195;50.854;2.860;2023-06-05T04:31:40;12.68;;;7.63;;
78844;SDS011;68195;50.854;2.860;2023-06-05T04:34:12;14.32;;;7.00;;
78844;SDS011;68195;50.854;2.860;2023-06-05T04:36:43;11.30;;;6.88;;
78844;SDS011;68195;50.854;2.860;2023-06-05T04:39:17;15.38;;;7.13;;
78844;SDS011;68195;50.854;2.860;2023-06-05T04:41:43;13.15;;;6.25;;
78844;SDS011;68195;50.854;2.860;2023-06-05T04:44:13;14.38;;;7.85;;
78844;SDS011;68195;50.854;2.860;2023-06-05T04:46:41;12.80;;;6.88;;
78844;SDS011;68195;50.854;2.860;2023-06-05T04:49:10;10.38;;;6.82;;
78844;SDS011;68195;50.854;2.860;2023-06-05T04:51:36;15.02;;;7.75;;
78844;SDS011;68195;50.854;2.860;2023-06-05T04:54:02;14.90;;;7.30;;
78844;SDS011;68195;50.854;2.860;2023-06-05T04:56:28;14.50;;;6.82;;
78844;SDS011;68195;50.854;2.860;2023-06-05T04:58:53;13.02;;;6.68;;
78844;SDS011;68195;50.854;2.860;2023-06-05T05:03:46;12.07;;;7.30;;
78844;SDS011;68195;50.854;2.860;2023-06-05T05:06:15;13.23;;;7.20;;
78844;SDS011;68195;50.854;2.860;2023-06-05T05:08:44;11.75;;;7.35;;
78844;SDS011;68195;50.854;2.860;2023-06-05T05:11:11;14.38;;;7.50;;
78844;SDS011;68195;50.854;2.860;2023-06-05T05:13:39;15.65;;;6.82;;
78844;SDS011;68195;50.854;2.860;2023-06-05T05:16:07;11.95;;;6.80;;
78844;SDS011;68195;50.854;2.860;2023-06-05T05:18:37;12.85;;;6.13;;
78844;SDS011;68195;50.854;2.860;2023-06-05T05:21:08;14.20;;;7.10;;
78844;SDS011;68195;50.854;2.860;2023-06-05T05:23:38;13.90;;;7.20;;
78844;SDS011;68195;50.854;2.860;2023-06-05T05:26:04;13.93;;;8.00;;
78844;SDS011;68195;50.854;2.860;2023-06-05T05:28:31;14.00;;;7.28;;
78844;SDS011;68195;50.854;2.860;2023-06-05T05:30:59;13.57;;;7.13;;
78844;SDS011;68195;50.854;2.860;2023-06-05T05:33:28;13.80;;;7.32;;
78844;SDS011;68195;50.854;2.860;2023-06-05T05:35:55;10.40;;;6.68;;
78844;SDS011;68195;50.854;2.860;2023-06-05T05:38:23;18.27;;;8.52;;
78844;SDS011;68195;50.854;2.860;2023-06-05T05:40:53;12.65;;;7.25;;
78844;SDS011;68195;50.854;2.860;2023-06-05T05:43:19;11.95;;;7.35;;
78844;SDS011;68195;50.854;2.860;2023-06-05T05:45:47;13.23;;;6.80;;
78844;SDS011;68195;50.854;2.860;2023-06-05T05:48:12;15.02;;;6.53;;
78844;SDS011;68195;50.854;2.860;2023-06-05T05:50:40;13.10;;;6.72;;
78844;SDS011;68195;50.854;2.860;2023-06-05T05:53:08;12.82;;;7.10;;
78844;SDS011;68195;50.854;2.860;2023-06-05T05:55:36;13.23;;;6.88;;
78844;SDS011;68195;50.854;2.860;2023-06-05T05:58:02;13.18;;;8.10;;
78844;SDS011;68195;50.854;2.860;2023-06-05T06:00:27;14.15;;;6.82;;
78844;SDS011;68195;50.854;2.860;2023-06-05T06:02:53;13.93;;;7.25;;
78844;SDS011;68195;50.854;2.860;2023-06-05T06:05:18;14.07;;;8.32;;
78844;SDS011;68195;50.854;2.860;2023-06-05T06:07:46;13.50;;;6.88;;
78844;SDS011;68195;50.854;2.860;2023-06-05T06:10:14;13.48;;;7.57;;
78844;SDS011;68195;50.854;2.860;2023-06-05T06:12:43;12.20;;;7.20;;
78844;SDS011;68195;50.854;2.860;2023-06-05T06:15:09;14.45;;;7.18;;
78844;SDS011;68195;50.854;2.860;2023-06-05T06:17:37;10.65;;;6.38;;
78844;SDS011;68195;50.854;2.860;2023-06-05T06:20:03;12.50;;;7.00;;
78844;SDS011;68195;50.854;2.860;2023-06-05T06:22:31;13.07;;;6.30;;
78844;SDS011;68195;50.854;2.860;2023-06-05T06:24:56;14.00;;;7.22;;
78844;SDS011;68195;50.854;2.860;2023-06-05T06:27:22;13.07;;;6.85;;
78844;SDS011;68195;50.854;2.860;2023-06-05T06:29:48;10.68;;;7.15;;
78844;SDS011;68195;50.854;2.860;2023-06-05T06:32:18;12.77;;;6.82;;
78844;SDS011;68195;50.854;2.860;2023-06-05T06:34:44;11.23;;;6.53;;
78844;SDS011;68195;50.854;2.860;2023-06-05T06:37:15;14.05;;;6.63;;
78844;SDS011;68195;50.854;2.860;2023-06-05T06:39:45;13.13;;;6.43;;
78844;SDS011;68195;50.854;2.860;2023-06-05T06:42:11;11.23;;;7.05;;
78844;SDS011;68195;50.854;2.860;2023-06-05T06:44:37;13.30;;;6.97;;
78844;SDS011;68195;50.854;2.860;2023-06-05T06:47:05;10.90;;;6.60;;
78844;SDS011;68195;50.854;2.860;2023-06-05T06:51:56;11.23;;;6.53;;
78844;SDS011;68195;50.854;2.860;2023-06-05T06:54:22;11.85;;;6.50;;
78844;SDS011;68195;50.854;2.860;2023-06-05T06:56:51;12.00;;;6.82;;
78844;SDS011;68195;50.854;2.860;2023-06-05T06:59:19;13.07;;;6.53;;
78844;SDS011;68195;50.854;2.860;2023-06-05T07:01:53;12.45;;;6.35;;
78844;SDS011;68195;50.854;2.860;2023-06-05T07:04:34;10.20;;;5.60;;
78844;SDS011;68195;50.854;2.860;2023-06-05T07:09:25;13.73;;;6.05;;
78844;SDS011;68195;50.854;2.860;2023-06-05T07:14:21;10.43;;;6.28;;
78844;SDS011;68195;50.854;2.860;2023-06-05T07:16:47;9.00;;;5.95;;
78844;SDS011;68195;50.854;2.860;2023-06-05T07:19:14;10.85;;;5.90;;
78844;SDS011;68195;50.854;2.860;2023-06-05T07:21:40;12.10;;;6.10;;
78844;SDS011;68195;50.854;2.860;2023-06-05T07:26:32;12.77;;;7.13;;
78844;SDS011;68195;50.854;2.860;2023-06-05T07:31:28;10.40;;;5.45;;
78844;SDS011;68195;50.854;2.860;2023-06-05T07:33:57;10.93;;;5.53;;
78844;SDS011;68195;50.854;2.860;2023-06-05T07:36:25;8.82;;;5.90;;
78844;SDS011;68195;50.854;2.860;2023-06-05T07:38:53;10.10;;;6.03;;
78844;SDS011;68195;50.854;2.860;2023-06-05T07:43:43;7.47;;;5.10;;
78844;SDS011;68195;50.854;2.860;2023-06-05T07:48:39;7.80;;;5.18;;
78844;SDS011;68195;50.854;2.860;2023-06-05T07:51:07;11.57;;;6.30;;
78844;SDS011;68195;50.854;2.860;2023-06-05T07:53:33;9.82;;;6.45;;
78844;SDS011;68195;50.854;2.860;2023-06-05T07:58:27;8.70;;;5.50;;
78844;SDS011;68195;50.854;2.860;2023-06-05T08:00:53;8.20;;;5.25;;
78844;SDS011;68195;50.854;2.860;2023-06-05T08:05:48;7.95;;;4.80;;
78844;SDS011;68195;50.854;2.860;2023-06-05T08:10:45;9.63;;;5.75;;
78844;SDS011;68195;50.854;2.860;2023-06-05T08:13:13;8.80;;;5.10;;
78844;SDS011;68195;50.854;2.860;2023-06-05T08:18:04;9.48;;;4.80;;
78844;SDS011;68195;50.854;2.860;2023-06-05T08:22:55;7.43;;;5.23;;
78844;SDS011;68195;50.854;2.860;2023-06-05T08:25:22;14.25;;;6.18;;
78844;SDS011;68195;50.854;2.860;2023-06-05T08:27:51;9.40;;;5.85;;
78844;SDS011;68195;50.854;2.860;2023-06-05T08:30:19;10.05;;;5.63;;
78844;SDS011;68195;50.854;2.860;2023-06-05T08:32:45;12.32;;;5.32;;
78844;SDS011;68195;50.854;2.860;2023-06-05T08:35:13;8.75;;;5.20;;
78844;SDS011;68195;50.854;2.860;2023-06-05T08:37:40;8.95;;;4.97;;
78844;SDS011;68195;50.854;2.860;2023-06-05T08:42:33;11.80;;;5.10;;
78844;SDS011;68195;50.854;2.860;2023-06-05T08:47:26;8.13;;;5.05;;
78844;SDS011;68195;50.854;2.860;2023-06-05T08:49:53;11.15;;;6.07;;
78844;SDS011;68195;50.854;2.860;2023-06-05T08:52:25;9.05;;;5.45;;
78844;SDS011;68195;50.854;2.860;2023-06-05T08:54:54;10.18;;;5.68;;
78844;SDS011;68195;50.854;2.860;2023-06-05T08:57:26;9.80;;;5.57;;
78844;SDS011;68195;50.854;2.860;2023-06-05T08:59:53;10.68;;;5.65;;
78844;SDS011;68195;50.854;2.860;2023-06-05T09:04:46;9.85;;;5.30;;
78844;SDS011;68195;50.854;2.860;2023-06-05T09:12:11;10.13;;;5.22;;
78844;SDS011;68195;50.854;2.860;2023-06-05T09:14:40;11.02;;;5.95;;
78844;SDS011;68195;50.854;2.860;2023-06-05T09:17:11;10.15;;;5.43;;
78844;SDS011;68195;50.854;2.860;2023-06-05T09:19:39;8.07;;;5.72;;
78844;SDS011;68195;50.854;2.860;2023-06-05T09:22:06;11.15;;;5.55;;
78844;SDS011;68195;50.854;2.860;2023-06-05T09:24:36;8.82;;;5.18;;
78844;SDS011;68195;50.854;2.860;2023-06-05T09:29:29;9.60;;;5.75;;
78844;SDS011;68195;50.854;2.860;2023-06-05T09:32:05;10.85;;;5.75;;
78844;SDS011;68195;50.854;2.860;2023-06-05T09:34:35;7.80;;;4.95;;
78844;SDS011;68195;50.854;2.860;2023-06-05T09:37:03;8.27;;;5.70;;
78844;SDS011;68195;50.854;2.860;2023-06-05T09:39:31;8.80;;;5.70;;
78844;SDS011;68195;50.854;2.860;2023-06-05T09:41:58;8.00;;;6.40;;
78844;SDS011;68195;50.854;2.860;2023-06-05T09:44:27;9.65;;;5.80;;
78844;SDS011;68195;50.854;2.860;2023-06-05T09:49:30;9.80;;;5.85;;
78844;SDS011;68195;50.854;2.860;2023-06-05T09:51:58;9.30;;;4.85;;
78844;SDS011;68195;50.854;2.860;2023-06-05T09:54:27;6.60;;;4.68;;
78844;SDS011;68195;50.854;2.860;2023-06-05T09:57:01;7.13;;;4.78;;
78844;SDS011;68195;50.854;2.860;2023-06-05T09:59:29;7.55;;;5.43;;
78844;SDS011;68195;50.854;2.860;2023-06-05T10:01:57;6.68;;;4.85;;
78844;SDS011;68195;50.854;2.860;2023-06-05T10:04:28;9.27;;;5.00;;
78844;SDS011;68195;50.854;2.860;2023-06-05T10:06:57;10.25;;;5.50;;
78844;SDS011;68195;50.854;2.860;2023-06-05T10:09:27;9.27;;;5.15;;
78844;SDS011;68195;50.854;2.860;2023-06-05T10:11:55;9.75;;;6.10;;
78844;SDS011;68195;50.854;2.860;2023-06-05T10:14:23;8.75;;;5.38;;
78844;SDS011;68195;50.854;2.860;2023-06-05T10:16:49;9.68;;;5.20;;
78844;SDS011;68195;50.854;2.860;2023-06-05T10:19:19;7.40;;;5.40;;
78844;SDS011;68195;50.854;2.860;2023-06-05T10:21:48;15.02;;;6.05;;
78844;SDS011;68195;50.854;2.860;2023-06-05T10:35:06;8.43;;;5.78;;
78844;SDS011;68195;50.854;2.860;2023-06-05T10:40:34;7.63;;;5.35;;
78844;SDS011;68195;50.854;2.860;2023-06-05T10:45:53;9.75;;;5.90;;
78844;SDS011;68195;50.854;2.860;2023-06-05T10:48:19;12.20;;;6.22;;
78844;SDS011;68195;50.854;2.860;2023-06-05T10:51:31;8.88;;;5.30;;
78844;SDS011;68195;50.854;2.860;2023-06-05T10:53:58;8.32;;;6.60;;
78844;SDS011;68195;50.854;2.860;2023-06-05T10:59:31;9.45;;;5.53;;
78844;SDS011;68195;50.854;2.860;2023-06-05T11:05:02;10.15;;;6.25;;
78844;SDS011;68195;50.854;2.860;2023-06-05T11:07:24;11.70;;;6.65;;
78844;SDS011;68195;50.854;2.860;2023-06-05T11:17:43;7.10;;;5.05;;
78844;SDS011;68195;50.854;2.860;2023-06-05T11:30:30;7.50;;;5.57;;
78844;SDS011;68195;50.854;2.860;2023-06-05T11:33:09;11.38;;;6.78;;
78844;SDS011;68195;50.854;2.860;2023-06-05T11:35:39;10.55;;;5.72;;
78844;SDS011;68195;50.854;2.860;2023-06-05T11:38:12;14.38;;;6.50;;
78844;SDS011;68195;50.854;2.860;2023-06-05T11:40:40;8.23;;;5.50;;
78844;SDS011;68195;50.854;2.860;2023-06-05T11:43:10;14.55;;;6.22;;
78844;SDS011;68195;50.854;2.860;2023-06-05T11:45:41;9.40;;;6.38;;
78844;SDS011;68195;50.854;2.860;2023-06-05T11:48:13;10.95;;;6.35;;
78844;SDS011;68195;50.854;2.860;2023-06-05T11:50:57;8.63;;;5.25;;
78844;SDS011;68195;50.854;2.860;2023-06-05T11:53:27;8.50;;;5.45;;
78844;SDS011;68195;50.854;2.860;2023-06-05T11:55:56;11.70;;;5.53;;
78844;SDS011;68195;50.854;2.860;2023-06-05T11:58:29;11.00;;;6.53;;
78844;SDS011;68195;50.854;2.860;2023-06-05T12:03:34;10.00;;;5.55;;
78844;SDS011;68195;50.854;2.860;2023-06-05T12:06:03;8.85;;;5.65;;
78844;SDS011;68195;50.854;2.860;2023-06-05T12:08:29;8.93;;;5.20;;
78844;SDS011;68195;50.854;2.860;2023-06-05T12:10:57;9.88;;;5.40;;
78844;SDS011;68195;50.854;2.860;2023-06-05T12:13:48;10.73;;;5.35;;
78844;SDS011;68195;50.854;2.860;2023-06-05T12:16:15;11.07;;;5.00;;
78844;SDS011;68195;50.854;2.860;2023-06-05T12:18:42;8.68;;;5.63;;
78844;SDS011;68195;50.854;2.860;2023-06-05T12:21:18;7.10;;;5.15;;
78844;SDS011;68195;50.854;2.860;2023-06-05T12:23:44;8.43;;;5.15;;
78844;SDS011;68195;50.854;2.860;2023-06-05T12:26:10;8.63;;;5.03;;
78844;SDS011;68195;50.854;2.860;2023-06-05T12:28:39;11.30;;;5.97;;
78844;SDS011;68195;50.854;2.860;2023-06-05T12:31:05;10.02;;;5.32;;
78844;SDS011;68195;50.854;2.860;2023-06-05T12:33:33;10.85;;;6.25;;
78844;SDS011;68195;50.854;2.860;2023-06-05T12:36:11;7.72;;;4.35;;
78844;SDS011;68195;50.854;2.860;2023-06-05T12:38:38;10.13;;;4.82;;
78844;SDS011;68195;50.854;2.860;2023-06-05T12:41:09;9.25;;;5.47;;
78844;SDS011;68195;50.854;2.860;2023-06-05T12:43:37;9.20;;;5.22;;
78844;SDS011;68195;50.854;2.860;2023-06-05T12:46:06;8.68;;;5.10;;
78844;SDS011;68195;50.854;2.860;2023-06-05T12:48:37;8.43;;;4.70;;
78844;SDS011;68195;50.854;2.860;2023-06-05T12:51:05;11.63;;;4.95;;
78844;SDS011;68195;50.854;2.860;2023-06-05T12:53:30;8.32;;;4.75;;
78844;SDS011;68195;50.854;2.860;2023-06-05T12:55:56;7.93;;;5.18;;
78844;SDS011;68195;50.854;2.860;2023-06-05T12:58:21;10.13;;;4.70;;
78844;SDS011;68195;50.854;2.860;2023-06-05T13:00:49;8.75;;;5.18;;
78844;SDS011;68195;50.854;2.860;2023-06-05T13:03:15;11.90;;;5.80;;
78844;SDS011;68195;50.854;2.860;2023-06-05T13:05:43;9.38;;;5.22;;
78844;SDS011;68195;50.854;2.860;2023-06-05T13:08:08;11.60;;;6.30;;
78844;SDS011;68195;50.854;2.860;2023-06-05T13:10:38;11.20;;;5.40;;
78844;SDS011;68195;50.854;2.860;2023-06-05T13:13:07;7.78;;;4.68;;
78844;SDS011;68195;50.854;2.860;2023-06-05T13:15:36;10.30;;;5.32;;
78844;SDS011;68195;50.854;2.860;2023-06-05T13:18:01;8.38;;;4.70;;
78844;SDS011;68195;50.854;2.860;2023-06-05T13:20:27;7.15;;;5.00;;
78844;SDS011;68195;50.854;2.860;2023-06-05T13:22:57;11.82;;;6.30;;
78844;SDS011;68195;50.854;2.860;2023-06-05T13:25:29;10.43;;;4.88;;
78844;SDS011;68195;50.854;2.860;2023-06-05T13:27:57;12.45;;;5.45;;
78844;SDS011;68195;50.854;2.860;2023-06-05T13:30:25;10.05;;;5.15;;
78844;SDS011;68195;50.854;2.860;2023-06-05T13:32:50;14.55;;;6.60;;
78844;SDS011;68195;50.854;2.860;2023-06-05T13:35:17;9.30;;;5.38;;
78844;SDS011;68195;50.854;2.860;2023-06-05T13:37:45;7.05;;;5.10;;
78844;SDS011;68195;50.854;2.860;2023-06-05T13:40:13;9.02;;;6.18;;
78844;SDS011;68195;50.854;2.860;2023-06-05T13:42:41;10.38;;;4.97;;
78844;SDS011;68195;50.854;2.860;2023-06-05T13:45:07;7.63;;;4.60;;
78844;SDS011;68195;50.854;2.860;2023-06-05T13:47:38;9.52;;;5.85;;
78844;SDS011;68195;50.854;2.860;2023-06-05T13:50:03;10.88;;;5.75;;
78844;SDS011;68195;50.854;2.860;2023-06-05T13:52:32;8.95;;;5.80;;
78844;SDS011;68195;50.854;2.860;2023-06-05T13:55:02;8.43;;;5.22;;
78844;SDS011;68195;50.854;2.860;2023-06-05T13:57:31;10.50;;;6.30;;
78844;SDS011;68195;50.854;2.860;2023-06-05T13:59:56;8.43;;;5.80;;
78844;SDS011;68195;50.854;2.860;2023-06-05T14:02:24;8.90;;;5.60;;
78844;SDS011;68195;50.854;2.860;2023-06-05T14:04:49;12.15;;;6.07;;
78844;SDS011;68195;50.854;2.860;2023-06-05T14:07:17;14.50;;;6.53;;
78844;SDS011;68195;50.854;2.860;2023-06-05T14:09:45;12.05;;;6.32;;
78844;SDS011;68195;50.854;2.860;2023-06-05T14:12:10;12.18;;;6.30;;
78844;SDS011;68195;50.854;2.860;2023-06-05T14:14:36;11.07;;;6.88;;
78844;SDS011;68195;50.854;2.860;2023-06-05T14:17:04;16.17;;;7.32;;
78844;SDS011;68195;50.854;2.860;2023-06-05T14:19:32;13.02;;;7.75;;
78844;SDS011;68195;50.854;2.860;2023-06-05T14:21:57;12.25;;;7.18;;
78844;SDS011;68195;50.854;2.860;2023-06-05T14:24:27;14.00;;;5.55;;
78844;SDS011;68195;50.854;2.860;2023-06-05T14:26:58;10.55;;;5.93;;
78844;SDS011;68195;50.854;2.860;2023-06-05T14:29:23;13.23;;;6.43;;
78844;SDS011;68195;50.854;2.860;2023-06-05T14:31:51;11.85;;;7.30;;
78844;SDS011;68195;50.854;2.860;2023-06-05T14:34:16;13.57;;;6.22;;
78844;SDS011;68195;50.854;2.860;2023-06-05T14:36:47;12.07;;;5.88;;
78844;SDS011;68195;50.854;2.860;2023-06-05T14:39:16;10.57;;;6.93;;
78844;SDS011;68195;50.854;2.860;2023-06-05T14:41:42;10.27;;;6.50;;
78844;SDS011;68195;50.854;2.860;2023-06-05T14:44:13;12.15;;;6.50;;
78844;SDS011;68195;50.854;2.860;2023-06-05T14:46:38;12.48;;;6.85;;
78844;SDS011;68195;50.854;2.860;2023-06-05T14:49:08;12.98;;;7.05;;
78844;SDS011;68195;50.854;2.860;2023-06-05T14:51:33;9.15;;;5.60;;
78844;SDS011;68195;50.854;2.860;2023-06-05T14:53:58;10.38;;;6.35;;
78844;SDS011;68195;50.854;2.860;2023-06-05T14:56:26;9.20;;;6.18;;
78844;SDS011;68195;50.854;2.860;2023-06-05T14:58:52;9.95;;;6.15;;
78844;SDS011;68195;50.854;2.860;2023-06-05T15:01:18;10.63;;;6.43;;
78844;SDS011;68195;50.854;2.860;2023-06-05T15:03:46;9.07;;;5.20;;
78844;SDS011;68195;50.854;2.860;2023-06-05T15:06:12;11.38;;;5.95;;
78844;SDS011;68195;50.854;2.860;2023-06-05T15:08:38;15.93;;;6.75;;
78844;SDS011;68195;50.854;2.860;2023-06-05T15:11:08;11.80;;;5.65;;
78844;SDS011;68195;50.854;2.860;2023-06-05T15:13:38;11.45;;;6.82;;
78844;SDS011;68195;50.854;2.860;2023-06-05T15:16:03;12.43;;;6.97;;
78844;SDS011;68195;50.854;2.860;2023-06-05T15:18:29;11.50;;;7.00;;
78844;SDS011;68195;50.854;2.860;2023-06-05T15:20:54;9.10;;;6.07;;
78844;SDS011;68195;50.854;2.860;2023-06-05T15:23:20;12.70;;;6.22;;
78844;SDS011;68195;50.854;2.860;2023-06-05T15:25:48;12.30;;;5.60;;
78844;SDS011;68195;50.854;2.860;2023-06-05T15:28:13;12.30;;;5.53;;
78844;SDS011;68195;50.854;2.860;2023-06-05T15:30:41;10.85;;;5.40;;
78844;SDS011;68195;50.854;2.860;2023-06-05T15:33:07;11.65;;;5.00;;
78844;SDS011;68195;50.854;2.860;2023-06-05T15:35:32;8.82;;;4.80;;
78844;SDS011;68195;50.854;2.860;2023-06-05T15:37:58;11.57;;;5.60;;
78844;SDS011;68195;50.854;2.860;2023-06-05T15:40:25;10.18;;;6.15;;
78844;SDS011;68195;50.854;2.860;2023-06-05T15:43:07;8.98;;;5.20;;
78844;SDS011;68195;50.854;2.860;2023-06-05T15:45:36;7.35;;;4.63;;
78844;SDS011;68195;50.854;2.860;2023-06-05T15:48:04;7.53;;;5.10;;
78844;SDS011;68195;50.854;2.860;2023-06-05T15:50:33;7.18;;;4.43;;
78844;SDS011;68195;50.854;2.860;2023-06-05T15:52:59;11.45;;;5.43;;
78844;SDS011;68195;50.854;2.860;2023-06-05T15:55:24;9.70;;;5.25;;
78844;SDS011;68195;50.854;2.860;2023-06-05T15:57:50;8.60;;;4.57;;
78844;SDS011;68195;50.854;2.860;2023-06-05T16:00:17;12.20;;;5.28;;
78844;SDS011;68195;50.854;2.860;2023-06-05T16:02:46;7.90;;;4.55;;
78844;SDS011;68195;50.854;2.860;2023-06-05T16:05:16;7.13;;;4.38;;
78844;SDS011;68195;50.854;2.860;2023-06-05T16:07:42;6.72;;;4.15;;
78844;SDS011;68195;50.854;2.860;2023-06-05T16:10:12;7.75;;;4.32;;
78844;SDS011;68195;50.854;2.860;2023-06-05T16:12:40;6.68;;;4.55;;
78844;SDS011;68195;50.854;2.860;2023-06-05T16:15:07;9.07;;;4.05;;
78844;SDS011;68195;50.854;2.860;2023-06-05T16:20:01;6.93;;;3.72;;
78844;SDS011;68195;50.854;2.860;2023-06-05T16:22:26;8.93;;;4.50;;
78844;SDS011;68195;50.854;2.860;2023-06-05T16:24:55;7.10;;;4.20;;
78844;SDS011;68195;50.854;2.860;2023-06-05T16:29:48;6.97;;;4.60;;
78844;SDS011;68195;50.854;2.860;2023-06-05T16:32:15;9.02;;;4.03;;
78844;SDS011;68195;50.854;2.860;2023-06-05T16:34:42;10.73;;;4.68;;
78844;SDS011;68195;50.854;2.860;2023-06-05T16:39:33;8.20;;;3.90;;
78844;SDS011;68195;50.854;2.860;2023-06-05T16:44:27;9.32;;;3.90;;